createdAt,value
2019-01-26T00:00:44.635Z,45.20
2019-01-26T00:03:15.040Z,39.20
2019-01-26T00:05:45.213Z,39.90
2019-01-26T00:08:15.111Z,41.03
2019-01-26T00:10:45.011Z,41.30
2019-01-26T00:13:14.957Z,39.17
2019-01-26T00:15:44.988Z,44.13
2019-01-26T00:18:14.996Z,37.30
2019-01-26T00:20:44.886Z,36.23
2019-01-26T00:23:15.155Z,37.63
2019-01-26T00:25:45.335Z,39.97
2019-01-26T00:28:15.280Z,38.60
2019-01-26T00:30:45.161Z,43.27
2019-01-26T00:33:15.205Z,39.20
2019-01-26T00:35:45.561Z,48.03
2019-01-26T00:38:16.434Z,46.77
2019-01-26T00:40:46.603Z,43.13
2019-01-26T00:43:16.530Z,52.40
2019-01-26T00:45:46.437Z,49.23
2019-01-26T00:48:16.362Z,43.53
2019-01-26T00:50:46.370Z,50.37
2019-01-26T00:53:16.380Z,43.90
2019-01-26T00:55:46.430Z,47.80
2019-01-26T00:58:16.429Z,71.27
2019-01-26T01:00:46.766Z,50.77
2019-01-26T01:03:16.753Z,47.50
2019-01-26T01:05:46.741Z,48.27
2019-01-26T01:08:16.772Z,54.77
2019-01-26T01:10:47.136Z,61.50
2019-01-26T01:13:17.476Z,56.53
2019-01-26T01:15:47.460Z,39.23
2019-01-26T01:18:17.480Z,44.80
2019-01-26T01:20:47.465Z,47.10
2019-01-26T01:23:17.716Z,48.73
2019-01-26T01:25:47.833Z,50.37
2019-01-26T01:28:17.795Z,45.80
2019-01-26T01:30:47.726Z,44.53
2019-01-26T01:33:17.920Z,44.03
2019-01-26T01:35:48.153Z,44.30
2019-01-26T01:38:18.088Z,49.77
2019-01-26T01:40:48.376Z,46.70
2019-01-26T01:43:18.582Z,57.37
2019-01-26T01:45:48.549Z,47.63
2019-01-26T01:48:18.667Z,47.83
2019-01-26T01:50:48.623Z,48.67
2019-01-26T01:53:18.504Z,43.40
2019-01-26T01:55:48.490Z,47.63
2019-01-26T01:58:18.359Z,45.70
2019-01-26T02:00:48.515Z,41.10
2019-01-26T02:03:18.411Z,42.97
2019-01-26T02:05:48.646Z,47.23
2019-01-26T02:08:18.747Z,41.93
2019-01-26T02:10:48.699Z,40.20
2019-01-26T02:13:18.691Z,43.43
2019-01-26T02:15:48.839Z,41.93
2019-01-26T02:18:18.770Z,41.47
2019-01-26T02:20:49.146Z,40.87
2019-01-26T02:23:19.036Z,42.23
2019-01-26T02:25:51.087Z,44.37
2019-01-26T02:28:21.039Z,47.20
2019-01-26T02:30:51.293Z,42.60
2019-01-26T02:33:21.646Z,41.87
2019-01-26T02:35:51.737Z,41.67
2019-01-26T02:38:21.635Z,38.53
2019-01-26T02:40:52.345Z,48.23
2019-01-26T02:43:22.920Z,39.40
2019-01-26T02:45:52.797Z,44.23
2019-01-26T02:48:22.725Z,37.83
2019-01-26T02:50:52.645Z,48.43
2019-01-26T02:53:22.598Z,37.67
2019-01-26T02:55:52.479Z,44.37
2019-01-26T02:58:22.351Z,41.07
2019-01-26T03:00:52.480Z,41.07
2019-01-26T03:03:22.611Z,37.57
2019-01-26T03:05:52.549Z,40.50
2019-01-26T03:08:22.443Z,36.93
2019-01-26T03:10:52.409Z,41.20
2019-01-26T03:13:22.302Z,39.00
2019-01-26T03:15:52.207Z,42.50
2019-01-26T03:18:22.229Z,39.23
2019-01-26T03:20:52.428Z,40.37
2019-01-26T03:23:22.300Z,40.07
2019-01-26T03:25:52.221Z,39.97
2019-01-26T03:28:22.115Z,40.67
2019-01-26T03:30:52.015Z,40.20
2019-01-26T03:33:21.916Z,36.23
2019-01-26T03:35:52.077Z,38.63
2019-01-26T03:38:21.952Z,39.07
2019-01-26T03:40:51.955Z,38.20
2019-01-26T03:43:21.987Z,39.27
2019-01-26T03:45:51.930Z,38.87
2019-01-26T03:48:21.844Z,39.33
2019-01-26T03:50:52.278Z,38.80
2019-01-26T03:53:22.217Z,41.90
2019-01-26T03:55:52.204Z,37.90
2019-01-26T03:58:22.161Z,41.40
2019-01-26T04:00:52.348Z,39.60
2019-01-26T04:03:22.382Z,38.43
2019-01-26T04:05:52.505Z,41.27
2019-01-26T04:08:22.389Z,39.03
2019-01-26T04:10:52.523Z,36.63
2019-01-26T04:13:22.490Z,38.87
2019-01-26T04:15:52.388Z,35.53
2019-01-26T04:18:22.264Z,39.40
2019-01-26T04:20:52.277Z,37.90
2019-01-26T04:23:22.189Z,40.67
2019-01-26T04:25:52.098Z,40.13
2019-01-26T04:28:22.303Z,40.23
2019-01-26T04:30:52.681Z,35.63
2019-01-26T04:33:22.583Z,38.27
2019-01-26T04:35:52.906Z,40.53
2019-01-26T04:38:22.770Z,37.07
2019-01-26T04:40:52.669Z,32.93
2019-01-26T04:43:22.637Z,40.03
2019-01-26T04:45:52.537Z,41.23
2019-01-26T04:48:23.125Z,39.57
2019-01-26T04:50:53.621Z,39.87
2019-01-26T04:53:23.585Z,34.87
2019-01-26T04:55:53.511Z,42.83
2019-01-26T04:58:24.082Z,38.50
2019-01-26T05:00:54.853Z,40.23
2019-01-26T05:03:24.759Z,41.50
2019-01-26T05:05:55.044Z,39.60
2019-01-26T05:08:26.831Z,40.07
2019-01-26T05:10:57.236Z,40.70
2019-01-26T05:13:27.130Z,40.23
2019-01-26T05:15:57.066Z,43.07
2019-01-26T05:18:27.144Z,42.43
2019-01-26T05:20:57.003Z,41.80
2019-01-26T05:23:27.182Z,40.70
2019-01-26T05:25:57.365Z,41.13
2019-01-26T05:28:27.263Z,38.70
2019-01-26T05:30:57.150Z,39.40
2019-01-26T05:33:27.096Z,38.40
2019-01-26T05:35:56.993Z,38.33
2019-01-26T05:38:26.979Z,41.13
2019-01-26T05:40:57.159Z,41.63
2019-01-26T05:43:27.043Z,42.23
2019-01-26T05:45:56.921Z,43.37
2019-01-26T05:48:26.815Z,40.07
2019-01-26T05:50:56.705Z,37.73
2019-01-26T05:53:26.658Z,42.20
2019-01-26T05:55:56.565Z,43.33
2019-01-26T05:58:26.547Z,43.27
2019-01-26T06:00:56.429Z,41.23
2019-01-26T06:03:26.347Z,41.67
2019-01-26T06:05:56.249Z,37.57
2019-01-26T06:08:26.152Z,42.33
2019-01-26T06:10:56.040Z,39.33
2019-01-26T06:13:25.951Z,39.20
2019-01-26T06:15:55.918Z,40.37
2019-01-26T06:18:25.933Z,41.97
2019-01-26T06:20:55.831Z,41.50
2019-01-26T06:23:25.938Z,36.80
2019-01-26T06:25:56.049Z,41.83
2019-01-26T06:28:26.175Z,39.90
2019-01-26T06:30:56.044Z,39.70
2019-01-26T06:33:25.921Z,40.60
2019-01-26T06:35:55.812Z,42.53
2019-01-26T06:38:25.701Z,42.67
2019-01-26T06:40:55.601Z,39.77
2019-01-26T06:43:25.474Z,41.63
2019-01-26T06:45:55.382Z,41.03
2019-01-26T06:48:25.275Z,38.67
2019-01-26T06:50:55.168Z,36.73
2019-01-26T06:53:25.181Z,38.70
2019-01-26T06:55:55.145Z,37.67
2019-01-26T06:58:25.054Z,37.90
2019-01-26T07:00:55.117Z,33.07
2019-01-26T07:03:25.118Z,33.37
2019-01-26T07:05:59.816Z,35.97
2019-01-26T07:08:29.788Z,32.30
2019-01-26T07:10:59.750Z,36.50
2019-01-26T07:13:29.660Z,38.43
2019-01-26T07:16:01.121Z,37.77
2019-01-26T07:18:31.205Z,36.50
2019-01-26T07:21:01.358Z,38.17
2019-01-26T07:23:31.318Z,31.23
2019-01-26T07:26:01.339Z,35.07
2019-01-26T07:28:31.255Z,34.00
2019-01-26T07:31:01.154Z,31.77
2019-01-26T07:33:31.303Z,34.80
2019-01-26T07:36:01.434Z,34.30
2019-01-26T07:38:33.055Z,32.93
2019-01-26T07:41:03.178Z,33.77
2019-01-26T07:43:33.322Z,34.57
2019-01-26T07:46:03.285Z,30.63
2019-01-26T07:48:33.160Z,34.87
2019-01-26T07:51:03.140Z,32.43
2019-01-26T07:53:33.338Z,31.30
2019-01-26T07:56:03.217Z,29.13
2019-01-26T07:58:33.189Z,29.60
2019-01-26T08:01:03.081Z,30.27
2019-01-26T08:03:32.957Z,34.23
2019-01-26T08:06:02.885Z,27.53
2019-01-26T08:08:32.769Z,33.20
2019-01-26T08:11:02.675Z,32.00
2019-01-26T08:13:32.707Z,30.60
2019-01-26T08:16:02.624Z,28.43
2019-01-26T08:18:32.799Z,26.63
2019-01-26T08:21:02.710Z,28.13
2019-01-26T08:23:32.936Z,24.43
2019-01-26T08:26:02.923Z,31.17
2019-01-26T08:28:32.843Z,28.90
2019-01-26T08:31:03.096Z,31.10
2019-01-26T08:33:33.052Z,31.40
2019-01-26T08:36:03.239Z,27.10
2019-01-26T08:38:33.330Z,27.73
2019-01-26T08:41:03.877Z,30.90
2019-01-26T08:43:33.897Z,30.83
2019-01-26T08:46:03.891Z,32.57
2019-01-26T08:48:33.891Z,31.37
2019-01-26T08:51:03.863Z,27.63
2019-01-26T08:53:33.770Z,31.13
2019-01-26T08:56:04.165Z,28.30
2019-01-26T08:58:34.047Z,29.30
2019-01-26T09:01:04.112Z,31.03
2019-01-26T09:03:48.563Z,25.30
2019-01-26T09:06:25.120Z,24.20
2019-01-26T09:08:55.233Z,26.57
2019-01-26T09:11:25.271Z,25.60
2019-01-26T09:13:55.160Z,24.97
2019-01-26T09:16:25.655Z,25.67
2019-01-26T09:18:55.684Z,29.47
2019-01-26T09:21:25.785Z,26.63
2019-01-26T09:23:55.894Z,23.63
2019-01-26T09:26:27.140Z,29.97
2019-01-26T09:28:57.367Z,26.07
2019-01-26T09:31:27.404Z,28.60
2019-01-26T09:33:57.754Z,27.47
2019-01-26T09:36:27.725Z,25.70
2019-01-26T09:38:57.904Z,25.40
2019-01-26T09:41:27.908Z,25.20
2019-01-26T09:43:58.061Z,26.60
2019-01-26T09:46:28.036Z,27.73
2019-01-26T09:48:58.394Z,26.73
2019-01-26T09:51:28.282Z,26.17
2019-01-26T09:53:58.161Z,25.20
2019-01-26T09:56:28.066Z,25.00
2019-01-26T09:58:58.269Z,24.33
2019-01-26T10:01:28.319Z,25.07
2019-01-26T10:03:58.224Z,26.07
2019-01-26T10:06:28.273Z,22.37
2019-01-26T10:08:58.182Z,21.43
2019-01-26T10:11:28.068Z,19.60
2019-01-26T10:13:58.013Z,18.87
2019-01-26T10:16:28.113Z,17.60
2019-01-26T10:18:58.248Z,17.00
2019-01-26T10:21:28.255Z,18.10
2019-01-26T10:23:58.233Z,17.33
2019-01-26T10:26:30.935Z,15.87
2019-01-26T10:29:01.284Z,16.60
2019-01-26T10:31:31.338Z,19.83
2019-01-26T10:34:01.224Z,18.20
2019-01-26T10:36:38.281Z,16.57
2019-01-26T10:39:17.910Z,18.20
2019-01-26T10:41:57.632Z,17.03
2019-01-26T10:44:29.401Z,18.50
2019-01-26T10:46:59.717Z,19.17
2019-01-26T10:49:29.671Z,19.07
2019-01-26T10:51:59.635Z,17.50
2019-01-26T10:54:29.506Z,18.20
2019-01-26T10:56:59.476Z,16.40
2019-01-26T10:59:29.400Z,16.63
2019-01-26T11:01:59.336Z,17.67
2019-01-26T11:04:29.250Z,17.17
2019-01-26T11:06:59.156Z,18.83
2019-01-26T11:09:29.098Z,18.47
2019-01-26T11:11:59.073Z,15.20
2019-01-26T11:14:29.301Z,16.10
2019-01-26T11:16:59.473Z,18.87
2019-01-26T11:19:29.807Z,18.60
2019-01-26T11:21:59.911Z,16.37
2019-01-26T11:24:29.849Z,16.23
2019-01-26T11:27:00.353Z,15.07
2019-01-26T11:29:30.792Z,17.70
2019-01-26T11:32:00.778Z,17.20
2019-01-26T11:34:30.839Z,16.43
2019-01-26T11:37:00.801Z,16.27
2019-01-26T11:39:31.087Z,15.53
2019-01-26T11:42:00.996Z,20.43
2019-01-26T11:44:30.978Z,17.27
2019-01-26T11:47:03.498Z,14.47
2019-01-26T11:49:33.534Z,15.73
2019-01-26T11:52:07.478Z,14.27
2019-01-26T11:54:47.074Z,13.87
2019-01-26T11:57:19.118Z,18.30
2019-01-26T12:00:06.779Z,14.50
2019-01-26T12:02:48.746Z,12.97
2019-01-26T12:05:26.292Z,12.63
2019-01-26T12:07:56.392Z,11.87
2019-01-26T12:10:26.596Z,13.97
2019-01-26T12:12:56.635Z,20.07
2019-01-26T12:15:26.642Z,14.53
2019-01-26T12:17:56.587Z,15.00
2019-01-26T12:20:26.586Z,11.93
2019-01-26T12:22:56.654Z,14.27
2019-01-26T12:25:26.894Z,12.77
2019-01-26T12:27:56.776Z,12.00
2019-01-26T12:30:26.689Z,13.10
2019-01-26T12:32:56.606Z,12.87
2019-01-26T12:35:26.498Z,13.33
2019-01-26T12:37:56.418Z,11.83
2019-01-26T12:40:26.591Z,11.00
2019-01-26T12:42:56.503Z,11.43
2019-01-26T12:45:26.601Z,10.57
2019-01-26T12:47:56.556Z,10.43
2019-01-26T12:50:26.505Z,10.17
2019-01-26T12:52:56.722Z,10.60
2019-01-26T12:55:26.699Z,9.00
2019-01-26T12:57:56.666Z,9.70
2019-01-26T13:00:27.502Z,9.40
2019-01-26T13:02:57.518Z,8.27
2019-01-26T13:05:27.527Z,7.63
2019-01-26T13:07:57.746Z,8.37
2019-01-26T13:10:33.182Z,8.57
2019-01-26T13:13:03.688Z,8.27
2019-01-26T13:15:33.740Z,8.07
2019-01-26T13:18:03.805Z,7.70
2019-01-26T13:20:33.772Z,6.40
2019-01-26T13:23:04.099Z,6.03
2019-01-26T13:25:34.805Z,6.13
2019-01-26T13:28:05.320Z,6.07
2019-01-26T13:30:35.248Z,7.23
2019-01-26T13:33:05.440Z,6.33
2019-01-26T13:35:35.814Z,6.30
2019-01-26T13:38:06.360Z,5.70
2019-01-26T13:40:36.845Z,6.90
2019-01-26T13:43:06.857Z,6.20
2019-01-26T13:45:36.745Z,6.10
2019-01-26T13:48:06.767Z,5.63
2019-01-26T13:50:37.140Z,5.93
2019-01-26T13:53:07.222Z,6.03
2019-01-26T13:55:37.286Z,6.50
2019-01-26T13:58:07.399Z,5.53
2019-01-26T14:00:37.585Z,6.63
2019-01-26T14:03:07.839Z,7.17
2019-01-26T14:05:38.033Z,5.83
2019-01-26T14:08:08.050Z,5.83
2019-01-26T14:10:38.065Z,6.50
2019-01-26T14:13:08.223Z,6.20
2019-01-26T14:15:38.281Z,6.17
2019-01-26T14:18:08.321Z,14.30
2019-01-26T14:20:38.293Z,8.70
2019-01-26T14:23:08.263Z,9.03
2019-01-26T14:25:38.181Z,9.33
2019-01-26T14:28:08.213Z,7.23
2019-01-26T14:30:42.334Z,6.97
2019-01-26T14:33:12.237Z,8.40
2019-01-26T14:35:42.239Z,8.87
2019-01-26T14:38:12.289Z,8.50
2019-01-26T14:40:42.199Z,8.47
2019-01-26T14:43:12.317Z,7.03
2019-01-26T14:45:42.224Z,6.97
2019-01-26T14:48:12.107Z,8.50
2019-01-26T14:50:42.031Z,8.40
2019-01-26T14:53:12.396Z,10.23
2019-01-26T14:55:42.382Z,9.33
2019-01-26T14:58:12.407Z,8.83
2019-01-26T15:00:42.379Z,8.23
2019-01-26T15:03:12.292Z,8.10
2019-01-26T15:05:42.685Z,7.80
2019-01-26T15:08:12.826Z,7.13
2019-01-26T15:10:42.770Z,7.37
2019-01-26T15:13:12.732Z,12.20
2019-01-26T15:15:42.940Z,9.17
2019-01-26T15:18:13.183Z,7.60
2019-01-26T15:20:43.449Z,6.93
2019-01-26T15:23:13.525Z,6.30
2019-01-26T15:25:43.666Z,6.93
2019-01-26T15:28:13.726Z,7.83
2019-01-26T15:30:44.439Z,7.97
2019-01-26T15:33:16.154Z,7.63
2019-01-26T15:35:46.105Z,8.80
2019-01-26T15:38:16.114Z,9.13
2019-01-26T15:40:46.076Z,8.00
2019-01-26T15:43:16.408Z,7.83
2019-01-26T15:45:49.187Z,8.13
2019-01-26T15:48:19.341Z,8.63
2019-01-26T15:50:49.463Z,7.83
2019-01-26T15:53:19.786Z,8.03
2019-01-26T15:55:49.670Z,7.53
2019-01-26T15:58:19.593Z,8.33
2019-01-26T16:00:49.621Z,8.73
2019-01-26T16:03:19.637Z,9.43
2019-01-26T16:05:49.646Z,10.30
2019-01-26T16:08:19.632Z,11.33
2019-01-26T16:10:49.913Z,11.00
2019-01-26T16:13:20.079Z,10.47
2019-01-26T16:15:50.463Z,10.33
2019-01-26T16:18:20.838Z,10.30
2019-01-26T16:20:50.735Z,9.10
2019-01-26T16:23:20.649Z,10.13
2019-01-26T16:25:50.943Z,10.10
2019-01-26T16:28:20.906Z,10.30
2019-01-26T16:30:51.179Z,10.07
2019-01-26T16:33:21.364Z,10.37
2019-01-26T16:35:51.264Z,10.33
2019-01-26T16:38:21.781Z,11.07
2019-01-26T16:40:52.068Z,11.40
2019-01-26T16:43:22.389Z,11.60
2019-01-26T16:45:52.610Z,12.03
2019-01-26T16:48:22.517Z,12.50
2019-01-26T16:50:52.868Z,12.63
2019-01-26T16:53:23.071Z,12.17
2019-01-26T16:55:52.986Z,13.53
2019-01-26T16:58:22.921Z,13.90
2019-01-26T17:00:56.664Z,12.87
2019-01-26T17:03:26.733Z,48.83
2019-01-26T17:05:56.738Z,96.10
2019-01-26T17:08:26.827Z,30.43
2019-01-26T17:10:57.382Z,16.47
2019-01-26T17:13:27.368Z,14.27
2019-01-26T17:15:57.383Z,25.63
2019-01-26T17:18:27.635Z,14.47
2019-01-26T17:20:57.612Z,58.20
2019-01-26T17:23:28.245Z,19.00
2019-01-26T17:25:58.130Z,18.00
2019-01-26T17:28:28.210Z,18.53
2019-01-26T17:30:58.116Z,16.27
2019-01-26T17:33:28.343Z,17.50
2019-01-26T17:35:58.391Z,18.53
2019-01-26T17:38:28.337Z,19.77
2019-01-26T17:40:58.587Z,18.63
2019-01-26T17:43:28.486Z,20.90
2019-01-26T17:45:58.469Z,20.73
2019-01-26T17:48:28.474Z,20.23
2019-01-26T17:50:58.677Z,20.63
2019-01-26T17:53:28.685Z,19.97
2019-01-26T17:55:58.632Z,20.87
2019-01-26T17:58:28.680Z,25.07
2019-01-26T18:00:59.636Z,28.00
2019-01-26T18:03:29.599Z,22.30
2019-01-26T18:05:59.721Z,22.13
2019-01-26T18:08:29.970Z,28.93
2019-01-26T18:10:59.875Z,46.23
2019-01-26T18:13:30.050Z,32.47
2019-01-26T18:16:00.229Z,25.60
2019-01-26T18:18:30.274Z,23.07
2019-01-26T18:21:00.200Z,21.33
2019-01-26T18:23:32.567Z,27.33
2019-01-26T18:26:02.750Z,70.57
2019-01-26T18:28:32.729Z,39.97
2019-01-26T18:31:02.733Z,24.10
2019-01-26T18:33:32.644Z,19.20
2019-01-26T18:36:02.631Z,21.37
2019-01-26T18:38:32.551Z,20.27
2019-01-26T18:41:02.535Z,20.23
2019-01-26T18:43:32.991Z,21.03
2019-01-26T18:46:03.190Z,21.00
2019-01-26T18:48:33.538Z,20.93
2019-01-26T18:51:03.478Z,20.23
2019-01-26T18:53:33.468Z,21.33
2019-01-26T18:56:03.725Z,19.70
2019-01-26T18:58:34.091Z,22.37
2019-01-26T19:01:04.539Z,48.00
2019-01-26T19:04:08.811Z,23.63
2019-01-26T19:06:39.067Z,21.77
2019-01-26T19:09:12.112Z,39.87
2019-01-26T19:11:42.399Z,23.17
2019-01-26T19:14:12.458Z,26.10
2019-01-26T19:16:42.747Z,16.43
2019-01-26T19:19:13.632Z,19.77
2019-01-26T19:21:43.582Z,19.37
2019-01-26T19:24:13.801Z,20.20
2019-01-26T19:26:43.832Z,18.67
2019-01-26T19:29:13.750Z,19.70
2019-01-26T19:31:43.724Z,20.73
2019-01-26T19:34:13.765Z,18.77
2019-01-26T19:36:44.098Z,18.90
2019-01-26T19:39:14.130Z,21.73
2019-01-26T19:41:44.053Z,36.50
2019-01-26T19:44:13.974Z,19.07
2019-01-26T19:46:44.248Z,18.93
2019-01-26T19:49:14.163Z,17.47
2019-01-26T19:51:44.395Z,15.30
2019-01-26T19:54:14.707Z,21.30
2019-01-26T19:56:44.758Z,27.83
2019-01-26T19:59:14.696Z,22.93
2019-01-26T20:01:44.783Z,35.80
2019-01-26T20:04:14.833Z,21.30
2019-01-26T20:06:45.061Z,35.60
2019-01-26T20:09:16.320Z,40.27
2019-01-26T20:11:46.669Z,31.00
2019-01-26T20:14:17.461Z,19.30
2019-01-26T20:16:47.776Z,19.37
2019-01-26T20:19:18.019Z,18.37
2019-01-26T20:21:48.239Z,18.57
2019-01-26T20:24:18.474Z,16.93
2019-01-26T20:26:48.494Z,19.20
2019-01-26T20:29:18.561Z,19.00
2019-01-26T20:31:49.079Z,19.73
2019-01-26T20:34:19.088Z,49.17
2019-01-26T20:36:49.377Z,27.30
2019-01-26T20:39:19.242Z,56.77
2019-01-26T20:41:49.142Z,28.97
2019-01-26T20:44:19.146Z,25.87
2019-01-26T20:46:49.580Z,17.50
2019-01-26T20:49:19.623Z,17.20
2019-01-26T20:51:49.672Z,26.37
2019-01-26T20:54:20.004Z,22.07
2019-01-26T20:56:50.010Z,49.20
2019-01-26T20:59:19.960Z,43.87
2019-01-26T21:01:49.943Z,40.17
2019-01-26T21:04:20.280Z,18.97
2019-01-26T21:06:50.277Z,16.93
2019-01-26T21:09:20.628Z,16.70
2019-01-26T21:11:50.719Z,15.97
2019-01-26T21:14:20.703Z,16.47
2019-01-26T21:16:50.884Z,15.97
2019-01-26T21:19:21.411Z,16.70
2019-01-26T21:21:51.335Z,12.47
2019-01-26T21:24:21.242Z,18.40
2019-01-26T21:26:51.441Z,18.20
2019-01-26T21:29:21.804Z,15.87
2019-01-26T21:31:51.770Z,14.77
2019-01-26T21:34:21.930Z,16.53
2019-01-26T21:36:52.010Z,15.37
2019-01-26T21:39:22.276Z,16.97
2019-01-26T21:41:52.585Z,17.03
2019-01-26T21:44:22.797Z,16.27
2019-01-26T21:46:52.789Z,18.07
2019-01-26T21:49:22.802Z,17.40
2019-01-26T21:51:52.705Z,18.23
2019-01-26T21:54:22.639Z,23.43
2019-01-26T21:56:52.908Z,19.23
2019-01-26T21:59:23.030Z,18.83
2019-01-26T22:01:53.040Z,18.77
2019-01-26T22:04:23.017Z,26.23
2019-01-26T22:06:53.185Z,26.70
2019-01-26T22:09:23.434Z,25.83
2019-01-26T22:11:54.145Z,21.27
2019-01-26T22:14:24.296Z,24.27
2019-01-26T22:16:54.579Z,23.73
2019-01-26T22:19:25.123Z,24.60
2019-01-26T22:21:55.144Z,26.10
2019-01-26T22:24:25.221Z,24.30
2019-01-26T22:26:55.360Z,24.77
2019-01-26T22:29:31.160Z,24.17
2019-01-26T22:31:56.967Z,22.57
2019-01-26T22:34:26.909Z,26.43
2019-01-26T22:36:56.822Z,27.10
2019-01-26T22:39:26.731Z,27.47
2019-01-26T22:41:56.790Z,25.20
2019-01-26T22:44:27.073Z,30.90
2019-01-26T22:46:57.307Z,29.13
2019-01-26T22:49:27.259Z,30.83
2019-01-26T22:51:57.419Z,30.40
2019-01-26T22:54:27.362Z,24.67
2019-01-26T22:56:57.509Z,27.53
2019-01-26T22:59:27.376Z,27.97
2019-01-26T23:01:58.130Z,30.27
2019-01-26T23:04:39.374Z,35.20
2019-01-26T23:07:43.909Z,32.10
2019-01-26T23:11:19.871Z,31.13
2019-01-26T23:14:04.000Z,34.93
2019-01-26T23:17:21.572Z,31.50
2019-01-26T23:20:50.263Z,32.53
2019-01-26T23:24:27.773Z,35.87
2019-01-26T23:27:47.029Z,32.57
2019-01-26T23:30:46.685Z,26.60
2019-01-26T23:33:16.750Z,33.40
2019-01-26T23:35:46.638Z,47.80
2019-01-26T23:38:16.570Z,32.80
2019-01-26T23:40:46.644Z,35.53
2019-01-26T23:43:16.918Z,35.33
2019-01-26T23:45:46.841Z,35.70
2019-01-26T23:48:16.778Z,33.50
2019-01-26T23:50:46.677Z,33.50
2019-01-26T23:53:17.015Z,35.60
2019-01-26T23:55:46.903Z,28.30
2019-01-26T23:58:16.972Z,32.27
